createdAt,value
2022-08-17T00:00:34.379Z,87.40
2022-08-17T00:03:03.703Z,87.50
2022-08-17T00:05:33.917Z,88.00
2022-08-17T00:08:01.891Z,88.20
2022-08-17T00:10:29.932Z,88.40
2022-08-17T00:13:01.113Z,88.80
2022-08-17T00:15:30.641Z,89.00
2022-08-17T00:17:58.655Z,89.50
2022-08-17T00:20:30.473Z,88.30
2022-08-17T00:23:05.722Z,88.10
2022-08-17T00:25:34.032Z,88.10
2022-08-17T00:28:02.101Z,88.10
2022-08-17T00:30:31.606Z,88.60
2022-08-17T00:33:23.663Z,89.10
2022-08-17T00:35:52.297Z,89.20
2022-08-17T00:38:20.637Z,89.40
2022-08-17T00:40:51.818Z,89.60
2022-08-17T00:43:27.872Z,89.90
2022-08-17T00:45:57.440Z,89.90
2022-08-17T00:48:30.282Z,90.00
2022-08-17T00:51:08.112Z,89.60
2022-08-17T00:53:45.060Z,89.60
2022-08-17T00:56:17.980Z,89.80
2022-08-17T00:58:46.091Z,89.30
2022-08-17T01:01:21.618Z,89.10
2022-08-17T01:03:51.507Z,88.80
2022-08-17T01:06:19.878Z,88.80
2022-08-17T01:08:48.332Z,89.00
2022-08-17T01:11:25.892Z,89.30
2022-08-17T01:13:54.199Z,89.70
2022-08-17T01:16:27.031Z,89.90
2022-08-17T01:18:58.331Z,90.20
2022-08-17T01:21:33.666Z,90.30
2022-08-17T01:24:03.436Z,89.80
2022-08-17T01:26:33.250Z,89.70
2022-08-17T01:29:02.443Z,89.40
2022-08-17T01:31:34.759Z,89.50
2022-08-17T01:34:06.659Z,89.50
2022-08-17T01:36:35.059Z,89.60
2022-08-17T01:39:05.005Z,89.30
2022-08-17T01:41:33.273Z,89.70
2022-08-17T01:44:04.306Z,90.10
2022-08-17T01:46:35.694Z,90.30
2022-08-17T01:49:07.560Z,90.60
2022-08-17T01:51:35.911Z,90.80
2022-08-17T01:54:08.860Z,90.70
2022-08-17T01:56:40.889Z,90.50
2022-08-17T01:59:08.882Z,90.30
2022-08-17T02:01:37.926Z,90.60
2022-08-17T02:04:08.351Z,91.00
2022-08-17T02:06:53.618Z,91.10
2022-08-17T02:09:25.873Z,91.30
2022-08-17T02:11:54.871Z,91.40
2022-08-17T02:14:25.701Z,91.50
2022-08-17T02:16:54.763Z,91.40
2022-08-17T02:19:23.226Z,90.90
2022-08-17T02:21:53.369Z,90.40
2022-08-17T02:24:58.741Z,89.70
2022-08-17T02:27:13.406Z,89.20
2022-08-17T02:29:41.438Z,89.10
2022-08-17T02:32:25.381Z,89.00
2022-08-17T02:34:57.223Z,89.10
2022-08-17T02:37:25.588Z,89.20
2022-08-17T02:39:56.954Z,89.60
2022-08-17T02:42:29.992Z,89.60
2022-08-17T02:44:57.972Z,90.00
2022-08-17T02:47:26.761Z,90.10
2022-08-17T02:49:55.730Z,90.10
2022-08-17T02:52:43.139Z,89.70
2022-08-17T02:55:17.221Z,89.40
2022-08-17T02:57:45.752Z,89.10
2022-08-17T03:00:17.646Z,89.30
2022-08-17T03:02:46.736Z,89.80
2022-08-17T03:05:18.275Z,90.10
2022-08-17T03:07:46.895Z,90.10
2022-08-17T03:10:17.475Z,90.30
2022-08-17T03:12:46.209Z,90.50
2022-08-17T03:15:17.904Z,90.40
2022-08-17T03:17:46.246Z,90.40
2022-08-17T03:20:16.082Z,90.50
2022-08-17T03:22:53.393Z,90.60
2022-08-17T03:25:25.868Z,90.70
2022-08-17T03:27:55.175Z,90.70
2022-08-17T03:30:24.185Z,90.90
2022-08-17T03:32:54.639Z,91.00
2022-08-17T03:35:24.965Z,91.10
2022-08-17T03:38:00.932Z,90.70
2022-08-17T03:40:55.677Z,90.40
2022-08-17T03:43:22.236Z,90.40
2022-08-17T03:46:10.795Z,90.40
2022-08-17T03:49:12.976Z,90.30
2022-08-17T03:51:58.464Z,90.40
2022-08-17T03:54:43.824Z,90.60
2022-08-17T03:57:13.624Z,91.00
2022-08-17T03:59:41.877Z,91.50
2022-08-17T04:02:15.419Z,91.60
2022-08-17T04:04:43.535Z,91.20
2022-08-17T04:07:11.576Z,91.30
2022-08-17T04:09:39.605Z,91.20
2022-08-17T04:12:07.822Z,91.30
2022-08-17T04:14:51.875Z,91.00
2022-08-17T04:17:23.565Z,91.10
2022-08-17T04:19:51.605Z,91.20
2022-08-17T04:22:30.441Z,91.50
2022-08-17T04:25:08.478Z,91.90
2022-08-17T04:27:36.975Z,92.10
2022-08-17T04:30:08.128Z,91.80
2022-08-17T04:33:03.837Z,91.90
2022-08-17T04:35:36.869Z,92.00
2022-08-17T04:38:04.942Z,91.70
2022-08-17T04:40:50.671Z,91.90
2022-08-17T04:43:22.299Z,92.10
2022-08-17T04:45:55.252Z,92.20
2022-08-17T04:48:35.267Z,92.10
2022-08-17T04:51:07.470Z,91.70
2022-08-17T04:53:35.633Z,91.60
2022-08-17T04:56:03.918Z,91.40
2022-08-17T04:58:32.102Z,91.40
2022-08-17T05:01:01.691Z,90.90
2022-08-17T05:03:30.308Z,90.60
2022-08-17T05:05:58.641Z,90.30
2022-08-17T05:08:26.682Z,90.10
2022-08-17T05:10:54.910Z,89.80
2022-08-17T05:13:24.797Z,89.50
2022-08-17T05:15:56.656Z,88.60
2022-08-17T05:18:26.689Z,88.40
2022-08-17T05:20:55.463Z,88.20
2022-08-17T05:23:25.313Z,87.90
2022-08-17T05:25:56.304Z,87.60
2022-08-17T05:28:27.607Z,87.70
2022-08-17T05:31:00.817Z,87.40
2022-08-17T05:33:32.356Z,87.40
2022-08-17T05:36:01.376Z,87.20
2022-08-17T05:38:30.824Z,86.90
2022-08-17T05:41:00.139Z,86.30
2022-08-17T05:43:30.115Z,85.60
2022-08-17T05:46:03.826Z,86.10
2022-08-17T05:48:40.100Z,86.40
2022-08-17T05:51:24.764Z,86.50
2022-08-17T05:54:01.176Z,86.30
2022-08-17T05:56:47.374Z,85.70
2022-08-17T05:59:24.936Z,85.10
2022-08-17T06:01:59.074Z,84.40
2022-08-17T06:04:37.662Z,83.50
2022-08-17T06:07:22.443Z,83.00
2022-08-17T06:10:00.455Z,81.90
2022-08-17T06:12:40.978Z,81.30
2022-08-17T06:15:24.565Z,81.10
2022-08-17T06:17:56.088Z,81.30
2022-08-17T06:20:28.187Z,81.30
2022-08-17T06:23:03.875Z,81.00
2022-08-17T06:25:37.907Z,80.60
2022-08-17T06:28:09.589Z,80.60
2022-08-17T06:30:58.630Z,80.20
2022-08-17T06:33:34.131Z,79.70
2022-08-17T06:36:10.004Z,79.30
2022-08-17T06:38:47.512Z,79.20
2022-08-17T06:41:25.207Z,79.20
2022-08-17T06:44:43.133Z,79.10
2022-08-17T06:47:08.946Z,78.30
2022-08-17T06:49:44.285Z,76.90
2022-08-17T06:52:43.432Z,76.00
2022-08-17T06:55:18.672Z,71.00
2022-08-17T06:57:52.499Z,66.60
2022-08-17T07:00:23.831Z,65.70
2022-08-17T07:02:57.466Z,65.60
2022-08-17T07:05:29.113Z,66.20
2022-08-17T07:08:03.757Z,65.70
2022-08-17T07:10:38.728Z,64.30
2022-08-17T07:13:25.607Z,63.10
2022-08-17T07:16:00.425Z,63.10
2022-08-17T07:18:33.016Z,65.30
2022-08-17T07:21:11.965Z,66.90
2022-08-17T07:23:57.440Z,67.30
2022-08-17T07:26:25.419Z,63.70
2022-08-17T07:28:56.091Z,61.60
2022-08-17T07:31:25.797Z,59.80
2022-08-17T07:34:03.894Z,58.00
2022-08-17T07:36:33.890Z,56.70
2022-08-17T07:39:05.806Z,56.10
2022-08-17T07:41:58.092Z,55.70
2022-08-17T07:44:28.048Z,56.00
2022-08-17T07:47:13.925Z,56.00
2022-08-17T07:49:46.450Z,57.90
2022-08-17T07:52:51.881Z,57.80
2022-08-17T07:55:32.729Z,59.80
2022-08-17T07:58:01.810Z,60.80
2022-08-17T08:00:32.004Z,62.60
2022-08-17T08:03:13.361Z,63.60
2022-08-17T08:05:52.228Z,65.60
2022-08-17T08:08:30.832Z,66.00
2022-08-17T08:11:04.119Z,66.30
2022-08-17T08:13:33.171Z,66.30
2022-08-17T08:16:24.843Z,65.70
2022-08-17T08:18:57.173Z,64.00
2022-08-17T08:21:36.297Z,63.90
2022-08-17T08:24:20.621Z,63.30
2022-08-17T08:26:57.341Z,63.00
2022-08-17T08:29:32.605Z,63.60
2022-08-17T08:32:08.571Z,64.70
2022-08-17T08:35:01.215Z,65.60
2022-08-17T08:37:42.890Z,66.30
2022-08-17T08:40:29.847Z,67.00
2022-08-17T08:43:11.574Z,67.10
2022-08-17T08:45:46.849Z,67.20
2022-08-17T08:48:55.840Z,67.30
2022-08-17T08:51:18.663Z,67.40
2022-08-17T08:53:53.686Z,68.30
2022-08-17T08:56:29.098Z,67.90
2022-08-17T08:59:08.706Z,68.60
2022-08-17T09:01:46.323Z,68.90
2022-08-17T09:04:29.710Z,68.80
2022-08-17T09:07:08.582Z,68.60
2022-08-17T09:09:46.160Z,68.30
2022-08-17T09:12:22.696Z,68.40
2022-08-17T09:14:59.498Z,68.50
2022-08-17T09:17:37.376Z,68.80
2022-08-17T09:20:14.422Z,68.70
2022-08-17T09:23:03.335Z,69.20
2022-08-17T09:25:35.978Z,71.60
2022-08-17T09:28:08.015Z,73.40
2022-08-17T09:30:45.388Z,75.70
2022-08-17T09:33:17.653Z,75.80
2022-08-17T09:35:50.365Z,77.70
2022-08-17T09:38:27.070Z,81.50
2022-08-17T09:41:04.672Z,81.00
2022-08-17T09:43:39.882Z,81.30
2022-08-17T09:46:15.947Z,80.20
2022-08-17T09:48:51.645Z,80.50
2022-08-17T09:51:24.676Z,78.50
2022-08-17T09:53:52.889Z,77.00
2022-08-17T09:56:46.069Z,76.70
2022-08-17T09:59:41.905Z,76.40
2022-08-17T10:02:40.500Z,78.30
2022-08-17T10:05:14.797Z,81.40
2022-08-17T10:07:48.653Z,83.10
2022-08-17T10:10:24.861Z,83.10
2022-08-17T10:13:20.315Z,82.70
2022-08-17T10:16:02.174Z,86.50
2022-08-17T10:18:43.887Z,87.30
2022-08-17T10:21:32.040Z,86.80
2022-08-17T10:24:24.454Z,84.70
2022-08-17T10:26:57.139Z,84.20
2022-08-17T10:29:40.771Z,83.80
2022-08-17T10:32:25.327Z,82.30
2022-08-17T10:35:26.217Z,82.00
2022-08-17T10:38:28.182Z,81.70
2022-08-17T10:41:02.299Z,81.80
2022-08-17T10:43:41.774Z,81.30
2022-08-17T10:46:31.205Z,84.40
2022-08-17T10:49:24.860Z,83.60
2022-08-17T10:51:55.716Z,83.60
2022-08-17T10:54:42.555Z,83.20
2022-08-17T10:57:38.131Z,84.50
2022-08-17T11:00:11.074Z,86.00
2022-08-17T11:02:49.343Z,87.90
2022-08-17T11:05:43.538Z,88.10
2022-08-17T11:08:47.667Z,87.30
2022-08-17T11:11:35.749Z,89.00
2022-08-17T11:14:28.428Z,91.70
2022-08-17T11:17:41.431Z,93.80
2022-08-17T11:20:21.440Z,93.90
2022-08-17T11:23:14.834Z,94.00
2022-08-17T11:25:49.354Z,93.90
2022-08-17T11:28:20.385Z,94.20
2022-08-17T11:30:52.109Z,94.30
2022-08-17T11:33:54.785Z,94.50
2022-08-17T11:36:45.588Z,94.90
2022-08-17T11:39:27.243Z,95.10
2022-08-17T11:42:05.839Z,95.30
2022-08-17T11:44:45.457Z,94.00
2022-08-17T11:47:38.576Z,94.40
2022-08-17T11:51:05.027Z,95.50
2022-08-17T11:54:30.659Z,95.50
2022-08-17T11:56:50.204Z,95.50
2022-08-17T11:59:58.523Z,94.90
2022-08-17T12:02:47.353Z,95.40
2022-08-17T12:05:37.120Z,94.00
2022-08-17T12:08:15.330Z,90.60
2022-08-17T12:10:54.201Z,91.20
2022-08-17T12:13:23.718Z,90.20
2022-08-17T12:16:07.242Z,89.40
2022-08-17T12:18:39.567Z,87.80
2022-08-17T12:21:50.540Z,86.40
2022-08-17T12:24:39.705Z,85.30
2022-08-17T12:27:10.456Z,83.20
2022-08-17T12:29:45.121Z,83.10
2022-08-17T12:32:20.033Z,83.70
2022-08-17T12:34:50.437Z,84.30
2022-08-17T12:37:21.957Z,84.40
2022-08-17T12:39:53.282Z,82.40
2022-08-17T12:42:31.149Z,80.90
2022-08-17T12:44:59.574Z,81.20
2022-08-17T12:47:30.389Z,80.60
2022-08-17T12:50:29.298Z,80.30
2022-08-17T12:53:01.776Z,80.60
2022-08-17T12:55:36.523Z,81.10
2022-08-17T12:58:04.686Z,81.20
2022-08-17T13:00:35.318Z,78.90
2022-08-17T13:03:07.846Z,77.80
2022-08-17T13:05:38.198Z,77.20
2022-08-17T13:08:20.248Z,75.40
2022-08-17T13:10:56.487Z,72.30
2022-08-17T13:13:27.877Z,71.00
2022-08-17T13:15:58.184Z,71.00
2022-08-17T13:18:42.691Z,67.80
2022-08-17T13:21:19.115Z,67.80
2022-08-17T13:23:56.934Z,66.20
2022-08-17T13:26:30.139Z,65.30
2022-08-17T13:28:59.001Z,59.50
2022-08-17T13:31:37.472Z,60.80
2022-08-17T13:35:03.727Z,59.80
2022-08-17T13:37:33.730Z,58.70
2022-08-17T13:40:20.405Z,57.90
2022-08-17T13:42:53.340Z,57.40
2022-08-17T13:45:53.015Z,56.40
2022-08-17T13:48:25.158Z,56.00
2022-08-17T13:51:15.489Z,54.80
2022-08-17T13:53:59.915Z,54.60
2022-08-17T13:56:54.324Z,56.10
2022-08-17T13:59:54.300Z,53.90
2022-08-17T14:02:28.628Z,52.80
2022-08-17T14:04:58.621Z,53.00
2022-08-17T14:07:35.294Z,51.00
2022-08-17T14:10:08.888Z,51.20
2022-08-17T14:12:39.115Z,54.40
2022-08-17T14:15:08.828Z,54.90
2022-08-17T14:17:39.111Z,54.40
2022-08-17T14:20:10.322Z,53.20
2022-08-17T14:22:44.006Z,52.60
2022-08-17T14:25:14.130Z,52.70
2022-08-17T14:27:53.113Z,52.90
2022-08-17T14:30:24.397Z,53.20
2022-08-17T14:32:54.090Z,53.30
2022-08-17T14:35:23.853Z,52.60
2022-08-17T14:37:53.804Z,52.70
2022-08-17T14:40:24.457Z,53.50
2022-08-17T14:42:54.040Z,54.30
2022-08-17T14:45:31.812Z,53.80
2022-08-17T14:48:00.856Z,54.20
2022-08-17T14:50:28.885Z,53.60
2022-08-17T14:52:58.333Z,52.80
2022-08-17T14:55:27.506Z,52.00
2022-08-17T14:57:55.526Z,52.20
2022-08-17T15:00:23.867Z,51.60
2022-08-17T15:02:54.880Z,51.50
2022-08-17T15:05:25.012Z,51.70
2022-08-17T15:07:53.740Z,52.60
2022-08-17T15:10:25.688Z,52.80
2022-08-17T15:12:54.437Z,53.70
2022-08-17T15:15:22.631Z,54.40
2022-08-17T15:17:51.188Z,54.50
2022-08-17T15:20:21.838Z,54.70
2022-08-17T15:22:50.585Z,55.20
2022-08-17T15:25:19.866Z,55.50
2022-08-17T15:27:49.373Z,55.50
2022-08-17T15:30:17.907Z,56.90
2022-08-17T15:32:53.190Z,56.80
2022-08-17T15:35:28.182Z,56.70
2022-08-17T15:38:04.560Z,56.10
2022-08-17T15:40:36.669Z,55.00
2022-08-17T15:43:07.677Z,55.80
2022-08-17T15:45:35.682Z,54.00
2022-08-17T15:48:04.469Z,53.70
2022-08-17T15:50:32.508Z,54.00
2022-08-17T15:53:03.466Z,54.20
2022-08-17T15:55:33.010Z,54.70
2022-08-17T15:58:01.692Z,55.40
2022-08-17T16:00:35.438Z,56.20
2022-08-17T16:04:01.637Z,56.50
2022-08-17T16:06:08.873Z,56.50
2022-08-17T16:08:41.559Z,57.30
2022-08-17T16:11:10.565Z,57.50
2022-08-17T16:13:39.636Z,57.90
2022-08-17T16:16:10.615Z,58.30
2022-08-17T16:18:39.490Z,59.40
2022-08-17T16:21:39.309Z,60.20
2022-08-17T16:24:13.213Z,60.80
2022-08-17T16:26:43.322Z,61.30
2022-08-17T16:29:11.401Z,61.90
2022-08-17T16:31:41.798Z,61.90
2022-08-17T16:34:18.000Z,62.00
2022-08-17T16:36:51.822Z,62.10
2022-08-17T16:39:26.457Z,62.30
2022-08-17T16:41:55.653Z,63.00
2022-08-17T16:44:23.973Z,62.90
2022-08-17T16:46:53.439Z,63.00
2022-08-17T16:49:35.281Z,63.20
2022-08-17T16:52:09.854Z,63.60
2022-08-17T16:54:39.633Z,63.90
2022-08-17T16:57:07.615Z,64.30
2022-08-17T16:59:41.031Z,64.60
2022-08-17T17:02:16.429Z,64.90
2022-08-17T17:04:51.035Z,65.30
2022-08-17T17:07:34.628Z,65.40
2022-08-17T17:10:08.627Z,65.70
2022-08-17T17:13:02.639Z,66.00
2022-08-17T17:15:38.212Z,66.20
2022-08-17T17:18:12.906Z,66.40
2022-08-17T17:20:48.567Z,66.80
2022-08-17T17:23:29.147Z,66.90
2022-08-17T17:26:03.934Z,67.30
2022-08-17T17:28:46.243Z,67.60
2022-08-17T17:31:17.469Z,68.00
2022-08-17T17:33:50.938Z,68.70
2022-08-17T17:36:26.959Z,69.10
2022-08-17T17:39:00.051Z,69.70
2022-08-17T17:41:34.844Z,69.90
2022-08-17T17:44:05.759Z,69.90
2022-08-17T17:46:39.439Z,70.30
2022-08-17T17:49:10.571Z,70.70
2022-08-17T17:52:09.970Z,70.70
2022-08-17T17:54:56.445Z,70.10
2022-08-17T17:57:35.630Z,70.30
2022-08-17T18:00:13.040Z,70.90
2022-08-17T18:03:02.271Z,71.50
2022-08-17T18:05:58.382Z,71.20
2022-08-17T18:08:42.951Z,70.40
2022-08-17T18:11:24.352Z,71.10
2022-08-17T18:14:06.138Z,72.00
2022-08-17T18:16:35.714Z,72.30
2022-08-17T18:19:03.837Z,72.50
2022-08-17T18:21:39.552Z,72.80
2022-08-17T18:24:10.429Z,73.30
2022-08-17T18:26:50.386Z,73.40
2022-08-17T18:29:37.951Z,74.20
2022-08-17T18:32:37.039Z,74.80
2022-08-17T18:35:34.924Z,75.40
2022-08-17T18:38:22.744Z,76.30
2022-08-17T18:41:07.921Z,76.40
2022-08-17T18:43:43.936Z,76.30
2022-08-17T18:46:30.106Z,76.70
2022-08-17T18:49:00.734Z,77.00
2022-08-17T18:51:40.850Z,77.30
2022-08-17T18:54:20.678Z,77.60
2022-08-17T18:56:55.048Z,77.90
2022-08-17T18:59:30.375Z,77.90
2022-08-17T19:02:10.050Z,78.00
2022-08-17T19:04:42.662Z,78.30
2022-08-17T19:07:25.670Z,78.80
2022-08-17T19:10:00.081Z,78.90
2022-08-17T19:12:33.724Z,78.70
2022-08-17T19:15:03.070Z,78.80
2022-08-17T19:17:40.875Z,79.00
2022-08-17T19:20:16.805Z,79.20
2022-08-17T19:23:13.703Z,79.20
2022-08-17T19:25:48.697Z,79.10
2022-08-17T19:28:24.268Z,79.20
2022-08-17T19:30:57.153Z,79.70
2022-08-17T19:33:25.918Z,80.10
2022-08-17T19:36:04.654Z,80.50
2022-08-17T19:38:43.164Z,80.90
2022-08-17T19:41:20.227Z,80.80
2022-08-17T19:43:59.995Z,80.90
2022-08-17T19:46:36.241Z,81.50
2022-08-17T19:49:33.004Z,81.60
2022-08-17T19:52:21.296Z,81.90
2022-08-17T19:54:55.929Z,81.70
2022-08-17T19:57:41.627Z,81.70
2022-08-17T20:00:13.118Z,82.00
2022-08-17T20:02:50.504Z,82.00
2022-08-17T20:05:28.105Z,82.00
2022-08-17T20:08:01.122Z,82.30
2022-08-17T20:10:39.727Z,82.30
2022-08-17T20:13:12.000Z,82.20
2022-08-17T20:15:43.118Z,82.20
2022-08-17T20:18:19.386Z,82.60
2022-08-17T20:20:55.885Z,82.90
2022-08-17T20:23:35.231Z,83.20
2022-08-17T20:26:10.595Z,83.70
2022-08-17T20:29:00.187Z,84.00
2022-08-17T20:31:45.981Z,84.10
2022-08-17T20:34:37.758Z,84.20
2022-08-17T20:37:09.992Z,84.30
2022-08-17T20:39:40.953Z,84.20
2022-08-17T20:42:29.562Z,84.30
2022-08-17T20:45:04.646Z,84.40
2022-08-17T20:47:35.546Z,84.50
2022-08-17T20:50:07.960Z,85.00
2022-08-17T20:52:46.634Z,85.40
2022-08-17T20:55:51.894Z,85.70
2022-08-17T20:58:48.395Z,86.20
2022-08-17T21:01:34.850Z,86.10
2022-08-17T21:04:08.110Z,86.20
2022-08-17T21:06:56.296Z,86.40
2022-08-17T21:09:31.745Z,86.20
2022-08-17T21:12:04.637Z,86.10
2022-08-17T21:15:00.789Z,86.10
2022-08-17T21:17:43.580Z,86.10
2022-08-17T21:20:32.127Z,86.10
2022-08-17T21:23:19.513Z,85.80
2022-08-17T21:26:15.620Z,85.80
2022-08-17T21:29:00.415Z,85.30
2022-08-17T21:31:36.184Z,85.20
2022-08-17T21:34:27.294Z,85.30
2022-08-17T21:36:56.832Z,85.40
2022-08-17T21:39:33.389Z,85.40
2022-08-17T21:42:02.280Z,85.70
2022-08-17T21:44:34.797Z,85.80
2022-08-17T21:47:20.828Z,85.80
2022-08-17T21:49:50.173Z,86.00
2022-08-17T21:52:21.212Z,86.00
2022-08-17T21:54:51.963Z,85.80
2022-08-17T21:57:23.618Z,85.70
2022-08-17T21:59:55.131Z,85.80
2022-08-17T22:02:26.248Z,85.60
2022-08-17T22:05:01.378Z,85.60
2022-08-17T22:07:38.635Z,86.20
2022-08-17T22:10:09.008Z,86.60
2022-08-17T22:12:37.062Z,86.50
2022-08-17T22:15:09.720Z,85.60
2022-08-17T22:17:44.983Z,86.10
2022-08-17T22:20:18.053Z,86.10
2022-08-17T22:23:23.931Z,86.80
2022-08-17T22:26:00.818Z,87.60
2022-08-17T22:28:42.071Z,88.90
2022-08-17T22:31:14.640Z,89.20
2022-08-17T22:33:46.784Z,90.10
2022-08-17T22:36:26.529Z,90.40
2022-08-17T22:38:58.857Z,91.20
2022-08-17T22:41:51.847Z,91.50
2022-08-17T22:44:29.507Z,91.10
2022-08-17T22:47:01.197Z,90.50
2022-08-17T22:49:32.765Z,89.90
2022-08-17T22:52:07.380Z,89.50
2022-08-17T22:54:53.046Z,89.70
2022-08-17T22:57:42.097Z,89.70
2022-08-17T23:00:29.069Z,89.60
2022-08-17T23:03:10.392Z,89.80
2022-08-17T23:05:39.623Z,90.80
2022-08-17T23:08:11.202Z,91.30
2022-08-17T23:10:39.397Z,93.00
2022-08-17T23:13:11.744Z,93.90
2022-08-17T23:15:41.505Z,94.40
2022-08-17T23:18:09.986Z,95.10
2022-08-17T23:20:42.708Z,95.50
2022-08-17T23:23:14.008Z,95.50
2022-08-17T23:25:46.412Z,95.50
2022-08-17T23:28:14.531Z,95.50
2022-08-17T23:30:46.779Z,95.50
2022-08-17T23:33:20.262Z,95.50
2022-08-17T23:35:48.674Z,95.50
2022-08-17T23:38:18.867Z,95.50
2022-08-17T23:40:46.912Z,95.50
2022-08-17T23:43:25.385Z,95.50
2022-08-17T23:45:57.455Z,95.50
2022-08-17T23:48:32.573Z,95.50
2022-08-17T23:51:09.678Z,95.50
2022-08-17T23:53:42.671Z,95.50
2022-08-17T23:56:11.700Z,95.50
2022-08-17T23:58:43.334Z,95.50
